Terminal Aerodrome Forecast
Issued by NWS

Home | Current Version | Previous Version | Text Only | Print | Product List | Glossary On
Versions: 1 2 3 4 5 6 7 8 9 10 11 12 13 14 15 16 17 18 19 20 21 22 23 24 25 26 27 28 29 30 31 32 33 34 35 36 37 38 39 40
064
FTUS44 KLIX 172342
TAFHDC
TAF
KHDC 172342Z 1800/1824 14005KT P6SM SCT040 OVC250
     FM180700 15004KT 3SM BR OVC004
     FM180800 15004KT 1SM BR OVC003
     FM181000 VRB03KT 1/4SM FG VV002
     FM181600 15004KT 2SM BR OVC003
     FM181700 16004KT P6SM OVC008
     FM182000 15004KT P6SM VCSH OVC020=

USA.gov is the U.S. government's official web portal to all federal, state and local government web resources and services.